Banning, California
Current Conditions -  °F | °C
As of 9:53 PM on Friday 24 Oct 2014 (Local Time) from KPSP Reporting Station
Clear Clear  
Wind Chill: 81°   Ceiling: Unl
Heat Index: 81°   Visibility: 10mi
Dew Point: 47°   Wind: 3mph
Humidity: 30%   Direction: 300°WNW
Pressure: 29.96"   Gusts: NA
Location:  33.93°N, 116.87°W
Report Text: KPSP 250453Z 30003KT 10SM CLR 27/08 A2996 RMK AO2 SLP142 T02720083
Loading
Personal Weather Stations






























Interactive Weather Map
Tropical Storm Tracking
New forecast layout! Learn more

10-Day Weather Forecast

Advertisements
Track Severe Weather on mobile